sensor_id;sensor_type;location;lat;lon;timestamp;temperature;humidity
60701;DHT22;46541;49.894;10.886;2022-12-04T09:20:33;6.40;99.90
60701;DHT22;46541;49.894;10.886;2022-12-04T09:23:01;6.40;99.90
60701;DHT22;46541;49.894;10.886;2022-12-04T09:25:33;6.30;99.90
60701;DHT22;46541;49.894;10.886;2022-12-04T09:28:00;6.30;99.90
60701;DHT22;46541;49.894;10.886;2022-12-04T09:30:27;6.40;99.90
60701;DHT22;46541;49.894;10.886;2022-12-04T09:32:54;6.30;99.90
60701;DHT22;46541;49.894;10.886;2022-12-04T09:35:21;6.40;99.90
60701;DHT22;46541;49.894;10.886;2022-12-04T09:37:48;6.40;99.90
60701;DHT22;46541;49.894;10.886;2022-12-04T09:40:27;6.50;99.90
60701;DHT22;46541;49.894;10.886;2022-12-04T09:43:02;6.50;99.90
60701;DHT22;46541;49.894;10.886;2022-12-04T09:45:43;6.50;99.90
60701;DHT22;46541;49.894;10.886;2022-12-04T09:48:11;6.60;99.90
60701;DHT22;46541;49.894;10.886;2022-12-04T09:50:41;6.60;99.90
60701;DHT22;46541;49.894;10.886;2022-12-04T09:53:25;6.50;99.90
60701;DHT22;46541;49.894;10.886;2022-12-04T09:56:01;6.50;99.90
60701;DHT22;46541;49.894;10.886;2022-12-04T10:03:46;6.50;99.90
60701;DHT22;46541;49.894;10.886;2022-12-04T10:06:24;6.50;99.90
60701;DHT22;46541;49.894;10.886;2022-12-04T10:09:00;6.60;99.90
60701;DHT22;46541;49.894;10.886;2022-12-04T10:14:23;6.70;99.90
60701;DHT22;46541;49.894;10.886;2022-12-04T10:20:12;6.70;99.90
60701;DHT22;46541;49.894;10.886;2022-12-04T10:25:20;6.50;99.90
60701;DHT22;46541;49.894;10.886;2022-12-04T10:27:59;6.50;99.90
60701;DHT22;46541;49.894;10.886;2022-12-04T10:30:31;6.60;99.90
60701;DHT22;46541;49.894;10.886;2022-12-04T10:33:29;6.70;99.90
60701;DHT22;46541;49.894;10.886;2022-12-04T10:35:53;6.90;99.90
60701;DHT22;46541;49.894;10.886;2022-12-04T10:38:45;7.00;99.90
60701;DHT22;46541;49.894;10.886;2022-12-04T10:43:45;6.80;99.90
60701;DHT22;46541;49.894;10.886;2022-12-04T10:46:22;6.70;99.90
60701;DHT22;46541;49.894;10.886;2022-12-04T10:48:54;6.80;99.90
60701;DHT22;46541;49.894;10.886;2022-12-04T10:51:22;6.80;99.90
60701;DHT22;46541;49.894;10.886;2022-12-04T10:53:50;6.80;99.90
60701;DHT22;46541;49.894;10.886;2022-12-04T10:56:18;6.80;99.90
60701;DHT22;46541;49.894;10.886;2022-12-04T10:59:05;6.80;99.90
60701;DHT22;46541;49.894;10.886;2022-12-04T11:01:32;6.80;99.90
60701;DHT22;46541;49.894;10.886;2022-12-04T11:06:45;7.00;99.90
60701;DHT22;46541;49.894;10.886;2022-12-04T11:09:21;7.00;99.90
60701;DHT22;46541;49.894;10.886;2022-12-04T11:11:49;6.90;99.90
60701;DHT22;46541;49.894;10.886;2022-12-04T11:14:19;7.00;99.90
60701;DHT22;46541;49.894;10.886;2022-12-04T11:16:49;7.10;99.90
60701;DHT22;46541;49.894;10.886;2022-12-04T11:19:28;7.10;99.90
60701;DHT22;46541;49.894;10.886;2022-12-04T11:21:58;7.00;99.90
60701;DHT22;46541;49.894;10.886;2022-12-04T11:26:57;7.00;99.90
60701;DHT22;46541;49.894;10.886;2022-12-04T11:29:44;7.00;99.90
60701;DHT22;46541;49.894;10.886;2022-12-04T11:32:30;7.10;99.90
60701;DHT22;46541;49.894;10.886;2022-12-04T11:35:03;7.10;99.90
60701;DHT22;46541;49.894;10.886;2022-12-04T11:37:32;7.10;99.90
60701;DHT22;46541;49.894;10.886;2022-12-04T11:40:02;7.20;99.90
60701;DHT22;46541;49.894;10.886;2022-12-04T11:42:30;7.40;99.90
60701;DHT22;46541;49.894;10.886;2022-12-04T11:45:00;7.30;99.90
60701;DHT22;46541;49.894;10.886;2022-12-04T11:47:30;7.30;99.90
60701;DHT22;46541;49.894;10.886;2022-12-04T11:58:27;7.40;99.90
60701;DHT22;46541;49.894;10.886;2022-12-04T12:06:48;7.60;99.90
60701;DHT22;46541;49.894;10.886;2022-12-04T12:17:44;7.70;99.90
60701;DHT22;46541;49.894;10.886;2022-12-04T12:23:26;7.50;99.90
60701;DHT22;46541;49.894;10.886;2022-12-04T12:33:47;7.50;99.90
60701;DHT22;46541;49.894;10.886;2022-12-04T12:36:14;7.50;99.90
60701;DHT22;46541;49.894;10.886;2022-12-04T12:38:59;7.50;99.90
60701;DHT22;46541;49.894;10.886;2022-12-04T12:41:38;7.50;99.90
60701;DHT22;46541;49.894;10.886;2022-12-04T12:47:36;7.40;99.90
60701;DHT22;46541;49.894;10.886;2022-12-04T12:52:54;7.30;99.90
60701;DHT22;46541;49.894;10.886;2022-12-04T12:55:43;7.40;99.90
60701;DHT22;46541;49.894;10.886;2022-12-04T12:58:16;7.40;99.90
60701;DHT22;46541;49.894;10.886;2022-12-04T13:01:34;7.40;99.90
60701;DHT22;46541;49.894;10.886;2022-12-04T13:03:54;7.50;99.90
60701;DHT22;46541;49.894;10.886;2022-12-04T13:06:30;7.50;99.90
60701;DHT22;46541;49.894;10.886;2022-12-04T13:09:28;7.50;99.90
60701;DHT22;46541;49.894;10.886;2022-12-04T13:12:09;7.40;99.90
60701;DHT22;46541;49.894;10.886;2022-12-04T13:14:38;7.40;99.90
60701;DHT22;46541;49.894;10.886;2022-12-04T13:17:11;7.40;99.90
60701;DHT22;46541;49.894;10.886;2022-12-04T13:19:43;7.40;99.90
60701;DHT22;46541;49.894;10.886;2022-12-04T13:42:00;7.40;99.90
60701;DHT22;46541;49.894;10.886;2022-12-04T13:44:28;7.40;99.90
60701;DHT22;46541;49.894;10.886;2022-12-04T13:47:05;7.40;99.90
60701;DHT22;46541;49.894;10.886;2022-12-04T13:49:37;7.40;99.90
60701;DHT22;46541;49.894;10.886;2022-12-04T13:52:35;7.40;99.90
60701;DHT22;46541;49.894;10.886;2022-12-04T13:55:02;7.30;99.90
60701;DHT22;46541;49.894;10.886;2022-12-04T13:57:28;7.30;99.90
60701;DHT22;46541;49.894;10.886;2022-12-04T14:00:25;7.30;99.90
60701;DHT22;46541;49.894;10.886;2022-12-04T14:02:53;7.30;99.90
60701;DHT22;46541;49.894;10.886;2022-12-04T14:05:30;7.40;99.90
60701;DHT22;46541;49.894;10.886;2022-12-04T14:11:01;7.30;99.90
60701;DHT22;46541;49.894;10.886;2022-12-04T14:16:36;7.10;99.90
60701;DHT22;46541;49.894;10.886;2022-12-04T14:19:04;7.00;99.90
60701;DHT22;46541;49.894;10.886;2022-12-04T14:21:43;7.10;99.90
60701;DHT22;46541;49.894;10.886;2022-12-04T14:24:38;7.10;99.90
60701;DHT22;46541;49.894;10.886;2022-12-04T14:27:29;7.10;99.90
60701;DHT22;46541;49.894;10.886;2022-12-04T14:29:57;7.00;99.90
60701;DHT22;46541;49.894;10.886;2022-12-04T14:32:28;7.10;99.90
60701;DHT22;46541;49.894;10.886;2022-12-04T14:34:57;7.10;99.90
60701;DHT22;46541;49.894;10.886;2022-12-04T14:37:31;7.10;99.90
60701;DHT22;46541;49.894;10.886;2022-12-04T14:40:00;7.10;99.90
60701;DHT22;46541;49.894;10.886;2022-12-04T14:42:36;7.10;99.90
60701;DHT22;46541;49.894;10.886;2022-12-04T14:45:16;7.10;99.90
60701;DHT22;46541;49.894;10.886;2022-12-04T14:53:47;7.00;99.90
60701;DHT22;46541;49.894;10.886;2022-12-04T14:56:47;7.00;99.90
60701;DHT22;46541;49.894;10.886;2022-12-04T14:59:20;7.00;99.90
60701;DHT22;46541;49.894;10.886;2022-12-04T15:01:50;7.00;99.90
60701;DHT22;46541;49.894;10.886;2022-12-04T15:04:31;6.80;99.90
60701;DHT22;46541;49.894;10.886;2022-12-04T15:06:59;6.80;99.90
60701;DHT22;46541;49.894;10.886;2022-12-04T15:09:27;6.70;99.90
60701;DHT22;46541;49.894;10.886;2022-12-04T15:12:21;6.70;99.90
60701;DHT22;46541;49.894;10.886;2022-12-04T15:15:16;6.70;99.90
60701;DHT22;46541;49.894;10.886;2022-12-04T15:18:12;6.70;99.90
60701;DHT22;46541;49.894;10.886;2022-12-04T15:25:56;6.60;99.90
60701;DHT22;46541;49.894;10.886;2022-12-04T15:28:34;6.60;99.90
60701;DHT22;46541;49.894;10.886;2022-12-04T15:31:05;6.60;99.90
60701;DHT22;46541;49.894;10.886;2022-12-04T15:33:36;6.60;99.90
60701;DHT22;46541;49.894;10.886;2022-12-04T15:36:11;6.60;99.90
60701;DHT22;46541;49.894;10.886;2022-12-04T15:38:39;6.60;99.90
60701;DHT22;46541;49.894;10.886;2022-12-04T15:41:20;6.60;99.90
60701;DHT22;46541;49.894;10.886;2022-12-04T15:43:50;6.60;99.90
60701;DHT22;46541;49.894;10.886;2022-12-04T15:46:29;6.60;99.90
60701;DHT22;46541;49.894;10.886;2022-12-04T15:49:18;6.60;99.90
60701;DHT22;46541;49.894;10.886;2022-12-04T15:51:46;6.60;99.90
60701;DHT22;46541;49.894;10.886;2022-12-04T15:54:20;6.60;99.90
60701;DHT22;46541;49.894;10.886;2022-12-04T15:56:59;6.60;99.90
60701;DHT22;46541;49.894;10.886;2022-12-04T15:59:27;6.70;99.90
60701;DHT22;46541;49.894;10.886;2022-12-04T16:01:55;6.60;99.90
60701;DHT22;46541;49.894;10.886;2022-12-04T16:04:28;6.60;99.90
60701;DHT22;46541;49.894;10.886;2022-12-04T16:06:55;6.70;99.90
60701;DHT22;46541;49.894;10.886;2022-12-04T16:09:23;6.70;99.90
60701;DHT22;46541;49.894;10.886;2022-12-04T16:12:02;6.70;99.90
60701;DHT22;46541;49.894;10.886;2022-12-04T16:14:30;6.70;99.90
60701;DHT22;46541;49.894;10.886;2022-12-04T16:16:59;6.70;99.90
60701;DHT22;46541;49.894;10.886;2022-12-04T16:19:37;6.60;99.90
60701;DHT22;46541;49.894;10.886;2022-12-04T16:22:23;6.60;99.90
60701;DHT22;46541;49.894;10.886;2022-12-04T16:24:52;6.60;99.90
60701;DHT22;46541;49.894;10.886;2022-12-04T16:27:22;6.50;99.90
60701;DHT22;46541;49.894;10.886;2022-12-04T16:29:50;6.50;99.90
60701;DHT22;46541;49.894;10.886;2022-12-04T16:32:19;6.50;99.90
60701;DHT22;46541;49.894;10.886;2022-12-04T16:34:47;6.50;99.90
60701;DHT22;46541;49.894;10.886;2022-12-04T16:37:19;6.50;99.90
60701;DHT22;46541;49.894;10.886;2022-12-04T16:39:46;6.60;99.90
60701;DHT22;46541;49.894;10.886;2022-12-04T16:42:25;6.60;99.90
60701;DHT22;46541;49.894;10.886;2022-12-04T16:44:52;6.60;99.90
60701;DHT22;46541;49.894;10.886;2022-12-04T16:47:19;6.70;99.90
60701;DHT22;46541;49.894;10.886;2022-12-04T16:49:48;6.70;99.90
60701;DHT22;46541;49.894;10.886;2022-12-04T16:52:16;6.70;99.90
60701;DHT22;46541;49.894;10.886;2022-12-04T16:54:43;6.70;99.90
60701;DHT22;46541;49.894;10.886;2022-12-04T16:57:10;6.70;99.90
60701;DHT22;46541;49.894;10.886;2022-12-04T16:59:37;6.70;99.90
60701;DHT22;46541;49.894;10.886;2022-12-04T17:02:16;6.60;99.90
60701;DHT22;46541;49.894;10.886;2022-12-04T17:04:45;6.70;99.90
60701;DHT22;46541;49.894;10.886;2022-12-04T17:07:12;6.70;99.90
60701;DHT22;46541;49.894;10.886;2022-12-04T17:09:39;6.70;99.90
60701;DHT22;46541;49.894;10.886;2022-12-04T17:12:06;6.60;99.90
60701;DHT22;46541;49.894;10.886;2022-12-04T17:14:32;6.60;99.90
60701;DHT22;46541;49.894;10.886;2022-12-04T17:16:59;6.70;99.90
60701;DHT22;46541;49.894;10.886;2022-12-04T17:19:26;6.70;99.90
60701;DHT22;46541;49.894;10.886;2022-12-04T17:21:53;6.70;99.90
60701;DHT22;46541;49.894;10.886;2022-12-04T17:24:19;6.70;99.90
60701;DHT22;46541;49.894;10.886;2022-12-04T17:26:46;6.70;99.90
60701;DHT22;46541;49.894;10.886;2022-12-04T17:29:13;6.70;99.90
60701;DHT22;46541;49.894;10.886;2022-12-04T17:31:39;6.70;99.90
60701;DHT22;46541;49.894;10.886;2022-12-04T17:34:06;6.70;99.90
60701;DHT22;46541;49.894;10.886;2022-12-04T17:36:33;6.70;99.90
60701;DHT22;46541;49.894;10.886;2022-12-04T17:39:00;6.70;99.90
60701;DHT22;46541;49.894;10.886;2022-12-04T17:41:27;6.70;99.90
60701;DHT22;46541;49.894;10.886;2022-12-04T17:43:54;6.70;99.90
60701;DHT22;46541;49.894;10.886;2022-12-04T17:46:22;6.70;99.90
60701;DHT22;46541;49.894;10.886;2022-12-04T17:48:50;6.70;99.90
60701;DHT22;46541;49.894;10.886;2022-12-04T17:51:19;6.70;99.90
60701;DHT22;46541;49.894;10.886;2022-12-04T17:53:47;6.70;99.90
60701;DHT22;46541;49.894;10.886;2022-12-04T17:56:18;6.70;99.90
60701;DHT22;46541;49.894;10.886;2022-12-04T17:58:45;6.60;99.90
60701;DHT22;46541;49.894;10.886;2022-12-04T18:01:15;6.60;99.90
60701;DHT22;46541;49.894;10.886;2022-12-04T18:03:51;6.60;99.90
60701;DHT22;46541;49.894;10.886;2022-12-04T18:06:21;6.60;99.90
60701;DHT22;46541;49.894;10.886;2022-12-04T18:08:48;6.60;99.90
60701;DHT22;46541;49.894;10.886;2022-12-04T18:11:21;6.60;99.90
60701;DHT22;46541;49.894;10.886;2022-12-04T18:13:52;6.60;99.90
60701;DHT22;46541;49.894;10.886;2022-12-04T18:16:19;6.60;99.90
60701;DHT22;46541;49.894;10.886;2022-12-04T18:18:45;6.60;99.90
60701;DHT22;46541;49.894;10.886;2022-12-04T18:21:13;6.60;99.90
60701;DHT22;46541;49.894;10.886;2022-12-04T18:23:41;6.60;99.90
60701;DHT22;46541;49.894;10.886;2022-12-04T18:26:20;6.60;99.90
60701;DHT22;46541;49.894;10.886;2022-12-04T18:28:47;6.60;99.90
60701;DHT22;46541;49.894;10.886;2022-12-04T18:31:15;6.50;99.90
60701;DHT22;46541;49.894;10.886;2022-12-04T18:33:43;6.50;99.90
60701;DHT22;46541;49.894;10.886;2022-12-04T18:36:15;6.50;99.90
60701;DHT22;46541;49.894;10.886;2022-12-04T18:38:43;6.60;99.90
60701;DHT22;46541;49.894;10.886;2022-12-04T18:41:11;6.60;99.90
60701;DHT22;46541;49.894;10.886;2022-12-04T18:43:41;6.60;99.90
60701;DHT22;46541;49.894;10.886;2022-12-04T18:46:11;6.60;99.90
60701;DHT22;46541;49.894;10.886;2022-12-04T18:48:39;6.60;99.90
60701;DHT22;46541;49.894;10.886;2022-12-04T18:51:18;6.60;99.90
60701;DHT22;46541;49.894;10.886;2022-12-04T18:53:46;6.60;99.90
60701;DHT22;46541;49.894;10.886;2022-12-04T18:56:13;6.60;99.90
60701;DHT22;46541;49.894;10.886;2022-12-04T18:58:41;6.70;99.90
60701;DHT22;46541;49.894;10.886;2022-12-04T19:01:10;6.70;99.90
60701;DHT22;46541;49.894;10.886;2022-12-04T19:03:37;6.70;99.90
60701;DHT22;46541;49.894;10.886;2022-12-04T19:06:04;6.70;99.90
60701;DHT22;46541;49.894;10.886;2022-12-04T19:08:31;6.80;99.90
60701;DHT22;46541;49.894;10.886;2022-12-04T19:11:07;6.80;99.90
60701;DHT22;46541;49.894;10.886;2022-12-04T19:13:34;6.70;99.90
60701;DHT22;46541;49.894;10.886;2022-12-04T19:16:02;6.70;99.90
60701;DHT22;46541;49.894;10.886;2022-12-04T19:18:29;6.70;99.90
60701;DHT22;46541;49.894;10.886;2022-12-04T19:20:56;6.70;99.90
60701;DHT22;46541;49.894;10.886;2022-12-04T19:23:23;6.70;99.90
60701;DHT22;46541;49.894;10.886;2022-12-04T19:25:54;6.70;99.90
60701;DHT22;46541;49.894;10.886;2022-12-04T19:28:21;6.70;99.90
60701;DHT22;46541;49.894;10.886;2022-12-04T19:30:48;6.70;99.90
60701;DHT22;46541;49.894;10.886;2022-12-04T19:33:15;6.70;99.90
60701;DHT22;46541;49.894;10.886;2022-12-04T19:35:42;6.70;99.90
60701;DHT22;46541;49.894;10.886;2022-12-04T19:38:09;6.70;99.90
60701;DHT22;46541;49.894;10.886;2022-12-04T19:40:35;6.60;99.90
60701;DHT22;46541;49.894;10.886;2022-12-04T19:43:02;6.60;99.90
60701;DHT22;46541;49.894;10.886;2022-12-04T19:45:29;6.60;99.90
60701;DHT22;46541;49.894;10.886;2022-12-04T19:47:56;6.60;99.90
60701;DHT22;46541;49.894;10.886;2022-12-04T19:50:22;6.60;99.90
60701;DHT22;46541;49.894;10.886;2022-12-04T19:52:49;6.60;99.90
60701;DHT22;46541;49.894;10.886;2022-12-04T19:55:16;6.60;99.90
60701;DHT22;46541;49.894;10.886;2022-12-04T19:57:43;6.60;99.90
60701;DHT22;46541;49.894;10.886;2022-12-04T20:00:10;6.60;99.90
60701;DHT22;46541;49.894;10.886;2022-12-04T20:02:37;6.60;99.90
60701;DHT22;46541;49.894;10.886;2022-12-04T20:05:04;6.50;99.90
60701;DHT22;46541;49.894;10.886;2022-12-04T20:07:31;6.50;99.90
60701;DHT22;46541;49.894;10.886;2022-12-04T20:09:58;6.50;99.90
60701;DHT22;46541;49.894;10.886;2022-12-04T20:12:25;6.50;99.90
60701;DHT22;46541;49.894;10.886;2022-12-04T20:14:52;6.50;99.90
60701;DHT22;46541;49.894;10.886;2022-12-04T20:17:18;6.50;99.90
60701;DHT22;46541;49.894;10.886;2022-12-04T20:19:45;6.50;99.90
60701;DHT22;46541;49.894;10.886;2022-12-04T20:22:12;6.50;99.90
60701;DHT22;46541;49.894;10.886;2022-12-04T20:24:39;6.50;99.90
60701;DHT22;46541;49.894;10.886;2022-12-04T20:27:05;6.40;99.90
60701;DHT22;46541;49.894;10.886;2022-12-04T20:29:32;6.50;99.90
60701;DHT22;46541;49.894;10.886;2022-12-04T20:31:59;6.50;99.90
60701;DHT22;46541;49.894;10.886;2022-12-04T20:34:26;6.50;99.90
60701;DHT22;46541;49.894;10.886;2022-12-04T20:36:52;6.50;99.90
60701;DHT22;46541;49.894;10.886;2022-12-04T20:39:19;6.50;99.90
60701;DHT22;46541;49.894;10.886;2022-12-04T20:41:46;6.40;99.90
60701;DHT22;46541;49.894;10.886;2022-12-04T20:44:15;6.50;99.90
60701;DHT22;46541;49.894;10.886;2022-12-04T20:46:43;6.40;99.90
60701;DHT22;46541;49.894;10.886;2022-12-04T20:49:17;6.40;99.90
60701;DHT22;46541;49.894;10.886;2022-12-04T20:51:49;6.40;99.90
60701;DHT22;46541;49.894;10.886;2022-12-04T20:54:18;6.40;99.90
60701;DHT22;46541;49.894;10.886;2022-12-04T20:56:45;6.40;99.90
60701;DHT22;46541;49.894;10.886;2022-12-04T20:59:15;6.40;99.90
60701;DHT22;46541;49.894;10.886;2022-12-04T21:01:42;6.40;99.90
60701;DHT22;46541;49.894;10.886;2022-12-04T21:04:09;6.40;99.90
60701;DHT22;46541;49.894;10.886;2022-12-04T21:06:39;6.40;99.90
60701;DHT22;46541;49.894;10.886;2022-12-04T21:09:18;6.30;99.90
60701;DHT22;46541;49.894;10.886;2022-12-04T21:11:50;6.30;99.90
60701;DHT22;46541;49.894;10.886;2022-12-04T21:14:20;6.30;99.90
60701;DHT22;46541;49.894;10.886;2022-12-04T21:17:08;6.30;99.90
60701;DHT22;46541;49.894;10.886;2022-12-04T21:19:36;6.30;99.90
60701;DHT22;46541;49.894;10.886;2022-12-04T21:22:03;6.20;99.90
60701;DHT22;46541;49.894;10.886;2022-12-04T21:24:30;6.30;99.90
60701;DHT22;46541;49.894;10.886;2022-12-04T21:27:03;6.30;99.90
60701;DHT22;46541;49.894;10.886;2022-12-04T21:29:30;6.30;99.90
60701;DHT22;46541;49.894;10.886;2022-12-04T21:31:57;6.30;99.90
60701;DHT22;46541;49.894;10.886;2022-12-04T21:34:23;6.30;99.90
60701;DHT22;46541;49.894;10.886;2022-12-04T21:36:50;6.40;99.90
60701;DHT22;46541;49.894;10.886;2022-12-04T21:39:17;6.40;99.90
60701;DHT22;46541;49.894;10.886;2022-12-04T21:41:44;6.40;99.90
60701;DHT22;46541;49.894;10.886;2022-12-04T21:44:29;6.40;99.90
60701;DHT22;46541;49.894;10.886;2022-12-04T21:46:56;6.40;99.90
60701;DHT22;46541;49.894;10.886;2022-12-04T21:49:23;6.40;99.90
60701;DHT22;46541;49.894;10.886;2022-12-04T21:51:49;6.40;99.90
60701;DHT22;46541;49.894;10.886;2022-12-04T21:54:28;6.40;99.90
60701;DHT22;46541;49.894;10.886;2022-12-04T21:56:55;6.40;99.90
60701;DHT22;46541;49.894;10.886;2022-12-04T21:59:23;6.40;99.90
60701;DHT22;46541;49.894;10.886;2022-12-04T22:01:51;6.50;99.90
60701;DHT22;46541;49.894;10.886;2022-12-04T22:04:18;6.50;99.90
60701;DHT22;46541;49.894;10.886;2022-12-04T22:06:45;6.50;99.90
60701;DHT22;46541;49.894;10.886;2022-12-04T22:09:12;6.50;99.90
60701;DHT22;46541;49.894;10.886;2022-12-04T22:11:40;6.50;99.90
60701;DHT22;46541;49.894;10.886;2022-12-04T22:14:08;6.50;99.90
60701;DHT22;46541;49.894;10.886;2022-12-04T22:16:35;6.50;99.90
60701;DHT22;46541;49.894;10.886;2022-12-04T22:19:08;6.40;99.90
60701;DHT22;46541;49.894;10.886;2022-12-04T22:21:35;6.40;99.90
60701;DHT22;46541;49.894;10.886;2022-12-04T22:24:03;6.40;99.90
60701;DHT22;46541;49.894;10.886;2022-12-04T22:26:30;6.40;99.90
60701;DHT22;46541;49.894;10.886;2022-12-04T22:28:57;6.40;99.90
60701;DHT22;46541;49.894;10.886;2022-12-04T22:31:25;6.50;99.90
60701;DHT22;46541;49.894;10.886;2022-12-04T22:33:54;6.50;99.90
60701;DHT22;46541;49.894;10.886;2022-12-04T22:36:24;6.50;99.90
60701;DHT22;46541;49.894;10.886;2022-12-04T22:38:52;6.40;99.90
60701;DHT22;46541;49.894;10.886;2022-12-04T22:41:37;6.50;99.90
60701;DHT22;46541;49.894;10.886;2022-12-04T22:44:06;6.50;99.90
60701;DHT22;46541;49.894;10.886;2022-12-04T22:46:33;6.40;99.90
60701;DHT22;46541;49.894;10.886;2022-12-04T22:49:00;6.50;99.90
60701;DHT22;46541;49.894;10.886;2022-12-04T22:51:27;6.50;99.90
60701;DHT22;46541;49.894;10.886;2022-12-04T22:53:56;6.50;99.90
60701;DHT22;46541;49.894;10.886;2022-12-04T22:56:28;6.50;99.90
60701;DHT22;46541;49.894;10.886;2022-12-04T22:58:56;6.40;99.90
60701;DHT22;46541;49.894;10.886;2022-12-04T23:01:33;6.50;99.90
60701;DHT22;46541;49.894;10.886;2022-12-04T23:04:01;6.50;99.90
60701;DHT22;46541;49.894;10.886;2022-12-04T23:06:30;6.50;99.90
60701;DHT22;46541;49.894;10.886;2022-12-04T23:09:03;6.50;99.90
60701;DHT22;46541;49.894;10.886;2022-12-04T23:11:30;6.50;99.90
60701;DHT22;46541;49.894;10.886;2022-12-04T23:13:59;6.60;99.90
60701;DHT22;46541;49.894;10.886;2022-12-04T23:16:29;6.60;99.90
60701;DHT22;46541;49.894;10.886;2022-12-04T23:18:57;6.60;99.90
60701;DHT22;46541;49.894;10.886;2022-12-04T23:21:25;6.60;99.90
60701;DHT22;46541;49.894;10.886;2022-12-04T23:23:53;6.50;99.90
60701;DHT22;46541;49.894;10.886;2022-12-04T23:26:22;6.50;99.90
60701;DHT22;46541;49.894;10.886;2022-12-04T23:28:50;6.60;99.90
60701;DHT22;46541;49.894;10.886;2022-12-04T23:31:18;6.50;99.90
60701;DHT22;46541;49.894;10.886;2022-12-04T23:33:45;6.50;99.90
60701;DHT22;46541;49.894;10.886;2022-12-04T23:36:12;6.50;99.90
60701;DHT22;46541;49.894;10.886;2022-12-04T23:38:41;6.50;99.90
60701;DHT22;46541;49.894;10.886;2022-12-04T23:41:18;6.60;99.90
60701;DHT22;46541;49.894;10.886;2022-12-04T23:43:46;6.50;99.90
60701;DHT22;46541;49.894;10.886;2022-12-04T23:46:15;6.50;99.90
60701;DHT22;46541;49.894;10.886;2022-12-04T23:48:44;6.40;99.90
60701;DHT22;46541;49.894;10.886;2022-12-04T23:51:12;6.50;99.90
60701;DHT22;46541;49.894;10.886;2022-12-04T23:53:40;6.50;99.90
60701;DHT22;46541;49.894;10.886;2022-12-04T23:56:16;6.50;99.90
60701;DHT22;46541;49.894;10.886;2022-12-04T23:58:44;6.50;99.90
